Time;durP1;ratioP1;P1;durP2;ratioP2;P2;SDS_P1;SDS_P2;PMS_P1;PMS_P2;Temp;Humidity;BMP_temperature;BMP_pressure;BME280_temperature;BME280_humidity;BME280_pressure;Samples;Min_cycle;Max_cycle;Signal;HPM_P1;HPM_P2
2023/01/17 00:01:29;;;;;;;25.53;18.53;;;;;;;2.44;100.00;91530.50;5091188;28;20184;-77
2023/01/17 00:12:08;;;;;;;26.80;18.67;;;;;;;2.01;100.00;91518.81;5088750;28;20195;-77
2023/01/17 00:14:33;;;;;;;27.30;19.83;;;;;;;2.11;100.00;91536.88;5088721;28;20240;-76
2023/01/17 00:17:00;;;;;;;21.83;18.70;;;;;;;2.26;100.00;91500.09;5091315;28;20276;-77
2023/01/17 01:34:02;;;;;;;16.80;15.20;;;;;;;2.44;100.00;91523.56;5091151;28;20187;-75
2023/01/17 01:36:28;;;;;;;16.63;14.93;;;;;;;2.57;100.00;91499.13;5092456;28;20263;-76
2023/01/17 01:38:53;;;;;;;17.70;15.83;;;;;;;2.81;100.00;91482.09;5092591;28;20193;-76
2023/01/17 01:41:19;;;;;;;18.20;16.30;;;;;;;2.62;100.00;91440.63;5091287;28;20181;-76
2023/01/17 01:43:47;;;;;;;16.97;15.17;;;;;;;2.95;100.00;91488.25;5092109;28;20181;-77
2023/01/17 01:46:31;;;;;;;15.67;14.37;;;;;;;3.09;100.00;91458.34;5092779;28;20227;-76
2023/01/17 01:49:24;;;;;;;15.13;13.63;;;;;;;3.06;100.00;91444.19;5091713;28;20240;-77
2023/01/17 01:51:57;;;;;;;14.00;12.87;;;;;;;3.33;100.00;91446.44;5086365;28;20880;-75
2023/01/17 01:54:30;;;;;;;14.50;13.30;;;;;;;3.43;100.00;91454.09;5092170;28;20240;-76
2023/01/17 01:57:00;;;;;;;14.20;13.10;;;;;;;3.43;100.00;91417.22;5092805;28;21203;-76
2023/01/17 01:59:26;;;;;;;13.67;12.40;;;;;;;3.78;100.00;91430.75;5092615;28;20228;-77
2023/01/17 02:01:54;;;;;;;14.57;13.37;;;;;;;3.97;100.00;91438.66;5090725;28;20695;-77
2023/01/17 02:04:21;;;;;;;16.17;14.57;;;;;;;3.93;100.00;91459.06;5091720;28;20325;-76
2023/01/17 02:06:50;;;;;;;15.60;13.97;;;;;;;3.82;100.00;91443.88;5091029;28;20201;-76
2023/01/17 02:09:17;;;;;;;11.77;10.53;;;;;;;4.87;100.00;91440.56;5092521;28;20228;-76
2023/01/17 02:11:44;;;;;;;11.23;10.73;;;;;;;6.02;94.44;91462.63;5089048;28;20193;-76
2023/01/17 02:14:18;;;;;;;12.37;11.17;;;;;;;6.14;90.75;91454.44;5090636;28;20292;-77
2023/01/17 02:17:02;;;;;;;13.70;12.57;;;;;;;5.85;91.36;91464.16;5089945;28;20204;-75
2023/01/17 02:19:36;;;;;;;10.50;10.00;;;;;;;6.10;92.38;91435.34;5090975;28;20236;-76
2023/01/17 02:22:05;;;;;;;12.70;11.63;;;;;;;5.30;93.25;91462.13;5091875;28;20184;-76
2023/01/17 02:25:08;;;;;;;14.73;13.63;;;;;;;5.38;94.23;91457.13;5090792;28;20225;-76
2023/01/17 02:27:51;;;;;;;13.47;12.47;;;;;;;4.91;94.03;91436.38;5090934;28;20188;-76
2023/01/17 02:30:32;;;;;;;15.00;13.00;;;;;;;4.08;97.36;91453.81;5093986;28;20235;-76
2023/01/17 02:33:19;;;;;;;14.10;12.70;;;;;;;3.63;99.81;91423.06;5091222;28;20189;-76
2023/01/17 02:36:03;;;;;;;14.90;13.60;;;;;;;3.40;100.00;91449.47;5089890;28;20307;-77
2023/01/17 02:39:01;;;;;;;17.13;14.97;;;;;;;3.37;100.00;91460.31;5091593;28;20195;-76
2023/01/17 02:41:33;;;;;;;17.60;15.03;;;;;;;3.14;100.00;91466.06;5071136;28;20209;-76
2023/01/17 02:44:01;;;;;;;16.30;14.03;;;;;;;3.21;100.00;91446.69;5070307;28;20201;-76
2023/01/17 02:46:26;;;;;;;15.77;14.17;;;;;;;3.40;100.00;91433.22;5070647;28;20201;-76
2023/01/17 02:48:54;;;;;;;13.73;12.53;;;;;;;3.83;100.00;91427.38;5071283;28;20245;-77
2023/01/17 02:51:31;;;;;;;16.13;14.53;;;;;;;3.71;100.00;91455.28;5090370;28;20216;-76
2023/01/17 02:54:20;;;;;;;16.13;14.50;;;;;;;3.33;100.00;91407.75;5090852;28;20289;-76
2023/01/17 02:56:57;;;;;;;16.37;14.53;;;;;;;3.44;100.00;91452.31;5056370;28;20216;-76
2023/01/17 02:59:25;;;;;;;15.87;14.27;;;;;;;3.37;100.00;91437.13;5090022;28;20326;-75
2023/01/17 03:01:59;;;;;;;17.30;15.60;;;;;;;3.23;100.00;91434.34;5092113;28;20210;-76
2023/01/17 03:04:52;;;;;;;17.57;15.80;;;;;;;3.16;100.00;91417.56;5089444;28;20315;-76
2023/01/17 03:07:23;;;;;;;20.30;17.90;;;;;;;2.72;100.00;91437.28;5091252;28;20191;-77
2023/01/17 03:09:53;;;;;;;18.53;15.17;;;;;;;2.72;100.00;91442.44;5087660;28;20236;-77
2023/01/17 03:12:20;;;;;;;16.53;14.83;;;;;;;2.67;100.00;91440.63;5088743;28;20185;-77
2023/01/17 03:14:45;;;;;;;18.00;15.57;;;;;;;2.37;100.00;91421.81;5090286;28;20212;-77
2023/01/17 03:17:10;;;;;;;18.93;16.77;;;;;;;2.85;100.00;91421.25;5091367;28;20225;-77
2023/01/17 03:19:36;;;;;;;18.53;16.47;;;;;;;2.59;100.00;91412.81;5088912;28;20254;-78
2023/01/17 03:22:01;;;;;;;25.07;17.63;;;;;;;2.52;100.00;91411.53;5089180;28;20211;-77
2023/01/17 03:24:27;;;;;;;21.77;17.17;;;;;;;2.60;100.00;91431.63;5088025;28;20255;-78
2023/01/17 03:26:53;;;;;;;21.83;16.87;;;;;;;2.45;100.00;91416.16;5090174;28;20185;-77
2023/01/17 03:29:18;;;;;;;18.70;16.70;;;;;;;2.36;100.00;91407.41;5089016;28;20314;-77
2023/01/17 03:31:44;;;;;;;21.90;16.30;;;;;;;2.67;100.00;91385.75;5091198;28;20204;-78
2023/01/17 03:34:09;;;;;;;22.10;18.37;;;;;;;2.46;100.00;91387.56;5089611;28;20235;-77
2023/01/17 03:36:35;;;;;;;23.03;18.90;;;;;;;1.90;100.00;91336.41;5090355;28;20232;-77
2023/01/17 03:39:01;;;;;;;19.20;17.20;;;;;;;2.63;100.00;91418.22;5089524;28;20200;-76
2023/01/17 03:41:27;;;;;;;22.33;17.17;;;;;;;2.62;100.00;91429.53;5089879;28;20185;-79
2023/01/17 03:43:52;;;;;;;22.17;17.80;;;;;;;2.53;100.00;91418.22;5089580;28;20189;-79
2023/01/17 03:46:21;;;;;;;18.50;16.67;;;;;;;2.72;100.00;91427.75;5089927;28;20197;-79
2023/01/17 03:48:47;;;;;;;22.47;17.73;;;;;;;2.41;100.00;91446.03;5090065;28;20188;-79
2023/01/17 03:51:12;;;;;;;22.47;17.27;;;;;;;2.43;100.00;91444.75;5089883;28;20229;-79
2023/01/17 03:53:38;;;;;;;20.70;17.30;;;;;;;2.39;100.00;91443.72;5090040;28;20211;-78
2023/01/17 03:56:03;;;;;;;19.03;16.20;;;;;;;2.58;100.00;91444.75;5089267;28;20216;-78
2023/01/17 03:58:29;;;;;;;21.27;17.50;;;;;;;2.19;100.00;91409.47;5089653;28;20188;-78
2023/01/17 04:00:54;;;;;;;27.63;18.30;;;;;;;2.48;100.00;91439.59;5089490;28;20939;-79
2023/01/17 04:03:19;;;;;;;23.93;18.53;;;;;;;2.26;100.00;91402.25;5089638;28;20744;-79
2023/01/17 04:05:45;;;;;;;25.00;18.47;;;;;;;2.53;100.00;91431.09;5089609;28;20216;-79
2023/01/17 04:08:10;;;;;;;24.93;18.60;;;;;;;2.26;100.00;91397.09;5090907;28;20188;-79
2023/01/17 04:10:35;;;;;;;24.90;17.10;;;;;;;2.34;100.00;91430.06;5089660;28;20225;-78
2023/01/17 04:13:01;;;;;;;23.73;18.50;;;;;;;2.77;100.00;91437.28;5089598;28;20215;-79
2023/01/17 04:15:26;;;;;;;23.73;17.53;;;;;;;2.34;100.00;91430.06;5088100;28;20216;-78
2023/01/17 04:17:52;;;;;;;17.57;15.23;;;;;;;2.38;100.00;91421.56;5089099;28;20208;-78
2023/01/17 04:20:26;;;;;;;21.60;18.87;;;;;;;2.35;100.00;91452.22;5089734;28;20223;-79
2023/01/17 04:22:52;;;;;;;22.07;17.73;;;;;;;2.65;100.00;91452.19;5088412;28;20512;-78
2023/01/17 04:25:18;;;;;;;23.80;19.00;;;;;;;2.68;100.00;91462.00;5090435;28;20228;-79
2023/01/17 04:27:44;;;;;;;20.80;18.47;;;;;;;2.59;100.00;91463.53;5089325;28;20192;-78
2023/01/17 04:30:10;;;;;;;23.83;17.90;;;;;;;2.44;100.00;91436.00;5089534;28;20224;-78
2023/01/17 04:32:35;;;;;;;25.43;17.77;;;;;;;2.64;100.00;91427.50;5089923;28;20183;-78
2023/01/17 04:35:00;;;;;;;24.27;17.53;;;;;;;2.33;100.00;91425.97;5089410;28;20225;-78
2023/01/17 04:37:26;;;;;;;20.13;17.60;;;;;;;2.58;100.00;91467.16;5090230;28;20209;-78
2023/01/17 04:39:51;;;;;;;19.70;17.60;;;;;;;2.53;100.00;91467.16;5089024;28;20208;-78
2023/01/17 04:42:16;;;;;;;10.93;10.23;;;;;;;3.90;100.00;91477.66;5089024;28;20216;-79
2023/01/17 04:44:42;;;;;;;10.43;9.93;;;;;;;5.14;100.00;91460.75;5087838;28;20220;-79
2023/01/17 04:47:07;;;;;;;9.23;8.93;;;;;;;6.99;100.00;91447.97;5088767;28;20176;-73
2023/01/17 04:49:32;;;;;;;9.70;9.30;;;;;;;7.17;97.70;91465.34;5085028;28;20213;-76
2023/01/17 04:51:58;;;;;;;8.83;8.53;;;;;;;7.50;92.27;91443.44;5087691;28;20220;-80
2023/01/17 04:54:23;;;;;;;8.97;8.57;;;;;;;7.18;97.38;91466.84;5086543;28;20244;-78
2023/01/17 04:56:49;;;;;;;8.00;7.70;;;;;;;7.09;97.70;91416.69;5087736;28;20213;-79
2023/01/17 04:59:14;;;;;;;9.17;8.87;;;;;;;7.26;94.23;91479.19;5088842;28;20297;-80
2023/01/17 05:01:40;;;;;;;11.20;10.53;;;;;;;7.00;94.50;91485.06;5101978;28;20181;-74
2023/01/17 05:04:05;;;;;;;17.10;15.50;;;;;;;6.44;92.59;91517.00;5086554;28;20195;-75
2023/01/17 05:06:31;;;;;;;17.30;15.43;;;;;;;5.06;96.31;91498.31;5087205;28;20195;-76
2023/01/17 05:08:56;;;;;;;20.40;15.97;;;;;;;4.63;98.86;91479.28;5091019;28;20222;-74
2023/01/17 05:11:21;;;;;;;13.63;12.37;;;;;;;5.12;100.00;91527.50;5091553;28;20188;-74
2023/01/17 05:13:47;;;;;;;9.73;9.27;;;;;;;5.72;100.00;91498.44;5090392;28;21398;-76
2023/01/17 05:16:13;;;;;;;8.50;8.20;;;;;;;6.42;99.87;91497.59;5090317;28;20232;-79
2023/01/17 05:18:38;;;;;;;11.47;10.63;;;;;;;6.11;96.56;91501.63;5091479;28;20188;-83
2023/01/17 05:21:03;;;;;;;14.50;13.30;;;;;;;5.97;96.18;91524.84;5089727;28;20219;-84
2023/01/17 05:23:29;;;;;;;15.43;13.93;;;;;;;5.24;97.60;91520.16;5091644;28;20194;-82
2023/01/17 05:25:54;;;;;;;13.73;12.43;;;;;;;5.22;100.00;91496.34;5090091;28;20235;-81
2023/01/17 05:28:20;;;;;;;9.00;8.70;;;;;;;5.94;100.00;91452.13;5090911;28;20220;-78
2023/01/17 05:30:45;;;;;;;9.07;8.77;;;;;;;6.29;99.77;91421.31;5122769;27;20224;-74
2023/01/17 05:33:11;;;;;;;8.57;8.27;;;;;;;6.95;95.83;91475.53;5090431;28;20296;-74
2023/01/17 05:35:36;;;;;;;8.23;7.97;;;;;;;7.37;93.91;91484.97;5091200;28;20222;-75
2023/01/17 05:38:02;;;;;;;8.33;8.13;;;;;;;7.91;90.51;91493.56;5092668;28;20217;-73
2023/01/17 05:40:29;;;;;;;9.07;8.77;;;;;;;7.85;88.87;91455.75;5092339;28;20225;-77
2023/01/17 05:42:57;;;;;;;8.67;8.37;;;;;;;8.09;88.13;91487.50;5092341;28;20204;-78
2023/01/17 05:45:26;;;;;;;9.37;8.87;;;;;;;8.29;87.47;91472.56;5090894;28;20224;-77
2023/01/17 05:47:53;;;;;;;8.20;7.90;;;;;;;8.31;87.24;91470.47;5091962;28;20188;-76
2023/01/17 05:50:21;;;;;;;8.33;8.03;;;;;;;8.28;87.41;91458.06;5107084;28;20840;-78
2023/01/17 05:52:58;;;;;;;8.77;8.47;;;;;;;8.42;85.86;91448.41;5091414;28;20197;-77
2023/01/17 05:55:25;;;;;;;8.83;8.53;;;;;;;8.28;87.03;91460.66;5092411;28;20216;-76
2023/01/17 05:57:51;;;;;;;9.07;8.77;;;;;;;8.35;86.59;91448.00;5089241;28;20228;-77
2023/01/17 06:00:17;;;;;;;8.97;8.60;;;;;;;8.27;87.33;91436.47;5091305;28;20228;-77
2023/01/17 06:02:44;;;;;;;9.33;9.03;;;;;;;8.43;85.24;91409.09;5090939;28;20280;-77
2023/01/17 06:05:09;;;;;;;9.00;8.60;;;;;;;8.54;85.24;91404.41;5090655;28;20227;-77
2023/01/17 06:07:35;;;;;;;9.30;8.93;;;;;;;8.51;84.63;91400.59;5092898;28;20185;-77
2023/01/17 06:10:00;;;;;;;9.03;8.73;;;;;;;8.54;84.74;91405.19;5090160;28;20239;-78
2023/01/17 06:12:26;;;;;;;9.50;9.20;;;;;;;8.90;81.95;91438.97;5093599;28;20196;-78
2023/01/17 06:14:51;;;;;;;9.13;8.83;;;;;;;8.78;82.51;91436.13;5091437;28;20323;-78
2023/01/17 06:17:17;;;;;;;8.60;8.27;;;;;;;8.78;81.90;91436.88;5090905;28;20209;-78
2023/01/17 06:19:42;;;;;;;8.40;8.10;;;;;;;8.76;83.04;91436.44;5091191;28;20818;-78
2023/01/17 06:22:07;;;;;;;8.80;8.40;;;;;;;8.68;83.74;91410.34;5091956;28;20191;-78
2023/01/17 06:24:33;;;;;;;8.87;8.57;;;;;;;8.79;82.42;91407.22;5091694;28;21138;-74
2023/01/17 06:26:59;;;;;;;9.87;9.47;;;;;;;8.88;81.41;91355.22;5091197;28;20192;-73
2023/01/17 06:29:24;;;;;;;9.07;8.67;;;;;;;9.00;81.34;91394.47;5086682;28;20252;-75
2023/01/17 06:31:50;;;;;;;9.20;8.67;;;;;;;9.13;80.44;91386.59;5088661;28;20184;-73
2023/01/17 06:34:16;;;;;;;8.97;8.67;;;;;;;9.17;80.57;91397.94;5106115;28;20232;-74
2023/01/17 06:36:41;;;;;;;9.40;9.00;;;;;;;9.27;80.51;91446.38;5089229;28;20200;-74
2023/01/17 06:39:08;;;;;;;9.13;8.83;;;;;;;9.24;79.32;91441.78;5085658;28;20203;-75
2023/01/17 06:41:34;;;;;;;8.73;8.43;;;;;;;9.30;79.94;91458.81;5089614;28;20180;-74
2023/01/17 06:43:59;;;;;;;9.40;9.00;;;;;;;9.41;78.91;91466.09;5089656;28;20195;-77
2023/01/17 06:46:25;;;;;;;8.93;8.53;;;;;;;9.41;78.65;91468.69;5087527;28;20182;-72
2023/01/17 06:48:50;;;;;;;8.90;8.53;;;;;;;9.37;78.85;91478.16;5089210;28;20193;-76
2023/01/17 06:51:16;;;;;;;8.30;8.00;;;;;;;9.30;77.86;91459.59;5089672;28;20227;-71
2023/01/17 06:53:41;;;;;;;8.90;8.60;;;;;;;9.38;78.57;91491.94;5089654;28;20179;-71
2023/01/17 06:56:07;;;;;;;7.77;7.47;;;;;;;9.41;78.46;91491.34;5087831;28;20310;-74
2023/01/17 06:58:33;;;;;;;9.30;8.93;;;;;;;9.24;78.33;91465.22;5089204;28;20264;-74
2023/01/17 07:01:08;;;;;;;9.30;8.90;;;;;;;9.44;78.70;91486.31;5088557;28;20212;-74
2023/01/17 07:03:34;;;;;;;8.97;8.63;;;;;;;9.42;78.13;91498.88;5090247;28;20184;-74
2023/01/17 07:06:04;;;;;;;8.80;8.50;;;;;;;9.56;77.74;91524.84;5088910;28;20212;-75
2023/01/17 07:08:30;;;;;;;9.53;9.17;;;;;;;9.68;79.02;91527.69;5090523;28;20199;-73
2023/01/17 07:11:00;;;;;;;9.37;8.97;;;;;;;9.89;76.37;91541.72;5088152;28;20229;-76
2023/01/17 07:13:26;;;;;;;9.03;8.27;;;;;;;9.94;75.23;91528.56;5088572;28;20559;-75
2023/01/17 07:15:52;;;;;;;7.73;7.43;;;;;;;9.77;75.61;91515.44;5089672;28;20220;-76
2023/01/17 07:18:22;;;;;;;8.20;7.90;;;;;;;9.80;76.12;91517.47;5090472;28;20215;-78
2023/01/17 07:20:51;;;;;;;8.90;8.57;;;;;;;9.53;76.89;91488.97;5089174;28;21026;-78
2023/01/17 07:23:19;;;;;;;8.70;8.30;;;;;;;9.89;74.72;91522.69;5091116;28;20196;-77
2023/01/17 07:25:55;;;;;;;8.63;8.33;;;;;;;9.87;75.86;91523.00;5089939;28;20244;-78
2023/01/17 07:28:21;;;;;;;8.77;8.37;;;;;;;9.82;78.84;91513.47;5092653;28;20184;-78
2023/01/17 07:30:46;;;;;;;9.20;8.70;;;;;;;9.76;80.36;91519.09;5121955;28;20683;-77
2023/01/17 07:33:12;;;;;;;9.17;8.77;;;;;;;9.55;78.84;91502.47;5089459;28;20184;-77
2023/01/17 07:35:37;;;;;;;9.60;9.10;;;;;;;9.56;79.26;91509.19;5088584;28;20231;-78
2023/01/17 07:38:04;;;;;;;9.00;8.63;;;;;;;9.58;82.31;91520.88;5105699;28;20216;-78
2023/01/17 07:40:30;;;;;;;8.90;8.60;;;;;;;9.54;82.18;91519.91;5090229;28;20212;-78
2023/01/17 07:43:12;;;;;;;8.90;8.50;;;;;;;9.67;80.39;91507.88;5090262;28;20196;-78
2023/01/17 07:45:43;;;;;;;8.83;8.43;;;;;;;9.78;77.46;91514.38;5090540;28;20224;-77
2023/01/17 07:48:09;;;;;;;8.27;7.97;;;;;;;9.96;76.99;91513.38;5087068;28;20184;-78
2023/01/17 07:50:35;;;;;;;10.23;9.47;;;;;;;10.02;77.88;91496.53;5089148;28;20255;-78
2023/01/17 07:53:01;;;;;;;9.27;8.67;;;;;;;10.03;76.75;91492.09;5090170;28;20197;-78
2023/01/17 07:55:27;;;;;;;9.90;9.30;;;;;;;10.10;75.62;91498.41;5089538;28;20246;-78
2023/01/17 07:57:52;;;;;;;9.60;9.07;;;;;;;10.11;73.54;91499.19;5091900;28;20201;-77
2023/01/17 08:00:18;;;;;;;9.83;9.17;;;;;;;10.31;74.16;91509.06;5090305;28;20231;-78
2023/01/17 08:02:43;;;;;;;9.40;8.80;;;;;;;10.35;73.52;91513.38;5089232;28;20262;-77
2023/01/17 08:05:09;;;;;;;9.60;9.10;;;;;;;10.29;72.45;91496.34;5089636;28;20229;-78
2023/01/17 08:07:34;;;;;;;9.33;8.70;;;;;;;10.35;72.69;91505.56;5088723;28;20189;-78
2023/01/17 08:10:00;;;;;;;9.90;9.40;;;;;;;10.30;71.50;91512.75;5087824;28;20213;-77
2023/01/17 08:12:26;;;;;;;9.80;9.20;;;;;;;10.43;73.46;91520.47;5089912;28;20219;-79
2023/01/17 08:14:51;;;;;;;9.17;8.77;;;;;;;10.51;71.30;91537.97;5104724;28;20231;-78
2023/01/17 08:17:17;;;;;;;9.90;9.50;;;;;;;10.34;71.37;91522.28;5089919;28;20467;-77
2023/01/17 08:19:43;;;;;;;9.90;9.43;;;;;;;10.44;71.62;91522.00;5089121;28;20313;-78
2023/01/17 08:22:10;;;;;;;8.67;8.10;;;;;;;10.54;71.57;91519.09;5090316;28;20177;-78
2023/01/17 08:24:36;;;;;;;9.30;9.00;;;;;;;10.36;71.76;91527.19;5104176;28;20228;-78
2023/01/17 08:27:02;;;;;;;8.80;8.47;;;;;;;10.61;72.17;91550.75;5123812;27;20260;-78
2023/01/17 08:29:28;;;;;;;8.90;8.60;;;;;;;10.54;71.55;91581.72;5089209;28;20231;-77
2023/01/17 08:31:53;;;;;;;8.40;8.00;;;;;;;10.44;72.36;91560.38;5089351;28;20211;-78
2023/01/17 08:34:19;;;;;;;9.70;9.07;;;;;;;10.56;72.88;91561.34;5088656;28;20216;-79
2023/01/17 08:36:46;;;;;;;9.20;8.80;;;;;;;10.53;72.96;91569.78;5090752;28;20209;-78
2023/01/17 08:39:12;;;;;;;9.27;8.67;;;;;;;10.48;73.39;91564.69;5088603;28;20217;-78
2023/01/17 08:41:38;;;;;;;8.30;7.97;;;;;;;10.40;73.43;91539.34;5089552;28;20170;-79
2023/01/17 08:44:03;;;;;;;9.57;9.17;;;;;;;10.60;73.06;91559.63;5089261;28;20195;-79
2023/01/17 08:46:29;;;;;;;8.90;8.43;;;;;;;10.58;74.20;91567.03;5122273;28;20204;-78
2023/01/17 08:48:57;;;;;;;9.13;8.70;;;;;;;10.57;73.33;91581.13;5089023;28;20189;-78
2023/01/17 08:51:25;;;;;;;9.40;8.70;;;;;;;10.61;73.46;91549.97;5088365;28;20236;-78
2023/01/17 08:53:51;;;;;;;8.93;8.53;;;;;;;10.68;73.33;91538.03;5088903;28;20176;-78
2023/01/17 08:56:17;;;;;;;9.03;8.60;;;;;;;10.80;72.04;91553.09;5089048;28;20201;-78
2023/01/17 08:58:42;;;;;;;9.70;9.20;;;;;;;10.83;72.40;91532.34;5088981;28;20176;-78
2023/01/17 09:01:08;;;;;;;9.33;8.97;;;;;;;10.80;71.82;91558.31;5088435;28;20205;-78
2023/01/17 09:03:34;;;;;;;9.03;8.53;;;;;;;10.87;70.63;91538.50;5087464;28;20280;-77
2023/01/17 09:06:08;;;;;;;9.07;8.67;;;;;;;10.79;70.81;91518.38;5088866;28;20200;-78
2023/01/17 09:08:35;;;;;;;9.40;8.97;;;;;;;10.91;70.36;91541.28;5088319;28;20189;-77
2023/01/17 09:11:18;;;;;;;9.97;9.47;;;;;;;10.96;71.01;91533.28;5088305;28;20243;-77
2023/01/17 09:13:44;;;;;;;8.93;8.63;;;;;;;10.91;70.53;91544.66;5089486;28;20220;-78
2023/01/17 09:16:09;;;;;;;8.93;8.53;;;;;;;10.99;69.72;91540.50;5087844;28;20201;-76
2023/01/17 09:18:35;;;;;;;9.40;9.00;;;;;;;10.95;70.30;91556.03;5088610;28;20252;-75
2023/01/17 09:21:15;;;;;;;8.90;8.47;;;;;;;11.22;69.50;91547.13;5089373;28;20250;-78
2023/01/17 09:23:41;;;;;;;8.13;7.83;;;;;;;11.16;69.89;91564.78;5088654;28;20247;-82
2023/01/17 09:26:18;;;;;;;9.07;8.50;;;;;;;11.05;69.11;91544.53;5088330;28;20255;-76
2023/01/17 09:28:43;;;;;;;8.80;8.30;;;;;;;11.07;69.06;91552.81;5088525;28;20193;-79
2023/01/17 09:31:09;;;;;;;9.20;8.80;;;;;;;11.26;69.84;91577.56;5085800;28;20307;-77
2023/01/17 09:33:35;;;;;;;8.50;8.20;;;;;;;11.23;68.63;91531.16;5087457;28;20188;-78
2023/01/17 09:36:03;;;;;;;8.97;8.57;;;;;;;11.46;69.00;91570.16;5087336;28;20290;-78
2023/01/17 09:38:29;;;;;;;8.27;7.97;;;;;;;11.45;68.06;91543.28;5088941;28;20402;-79
2023/01/17 09:40:55;;;;;;;9.33;8.93;;;;;;;11.22;68.51;91500.88;5120013;28;20233;-79
2023/01/17 09:43:28;;;;;;;8.40;8.10;;;;;;;11.22;68.96;91481.84;5088712;28;20211;-78
2023/01/17 09:45:53;;;;;;;9.03;8.63;;;;;;;11.31;69.26;91485.94;5087649;28;20214;-77
2023/01/17 09:48:36;;;;;;;8.27;7.87;;;;;;;11.25;67.85;91476.75;5087500;28;20185;-77
2023/01/17 09:51:14;;;;;;;8.60;8.17;;;;;;;11.35;68.22;91499.94;5087809;28;20236;-78
2023/01/17 09:53:42;;;;;;;8.97;8.67;;;;;;;11.26;68.89;91499.19;5089425;28;20189;-77
2023/01/17 09:56:11;;;;;;;7.90;7.60;;;;;;;11.29;69.10;91508.25;5091065;28;20201;-77
2023/01/17 09:59:00;;;;;;;8.20;7.80;;;;;;;10.98;69.14;91477.09;5092268;28;20201;-77
2023/01/17 10:01:43;;;;;;;8.57;8.27;;;;;;;11.18;70.56;91514.84;5069420;28;20297;-78
2023/01/17 10:04:50;;;;;;;8.60;8.30;;;;;;;11.40;69.69;91525.13;5072100;28;20242;-77
2023/01/17 10:07:35;;;;;;;9.13;8.53;;;;;;;11.08;69.37;91502.88;5091113;28;20190;-77
2023/01/17 10:10:07;;;;;;;9.03;8.63;;;;;;;11.46;69.48;91541.41;5089625;28;20276;-78
2023/01/17 10:12:38;;;;;;;8.80;8.40;;;;;;;11.49;67.91;91535.59;5123191;27;20181;-79
2023/01/17 10:15:29;;;;;;;9.43;8.70;;;;;;;11.49;68.95;91533.00;5090769;28;20241;-79
2023/01/17 10:18:17;;;;;;;9.33;8.93;;;;;;;11.53;69.10;91510.38;5090085;28;20242;-76
2023/01/17 10:20:52;;;;;;;8.50;8.20;;;;;;;11.90;72.35;91543.69;5090526;28;20289;-72
2023/01/17 10:23:59;;;;;;;8.73;8.40;;;;;;;11.89;69.92;91527.22;5090133;28;20192;-74
2023/01/17 10:26:25;;;;;;;9.43;8.87;;;;;;;12.22;67.98;91556.19;5086845;28;20219;-76
2023/01/17 10:28:58;;;;;;;9.00;8.60;;;;;;;12.14;66.63;91565.59;5090082;28;20263;-79
2023/01/17 10:31:32;;;;;;;8.80;8.20;;;;;;;12.15;68.06;91582.88;5092418;28;20189;-80
2023/01/17 10:34:20;;;;;;;8.40;8.10;;;;;;;11.80;65.91;91580.63;5091019;28;20243;-78
2023/01/17 10:36:51;;;;;;;8.87;8.47;;;;;;;12.23;65.90;91557.75;5091041;28;20221;-77
2023/01/17 10:39:25;;;;;;;8.57;8.27;;;;;;;11.49;68.37;91540.81;5090994;28;20244;-78
2023/01/17 10:42:25;;;;;;;9.77;9.20;;;;;;;11.96;65.05;91563.34;5092050;28;20177;-76
2023/01/17 10:45:27;;;;;;;9.67;9.20;;;;;;;12.32;63.25;91572.34;5064492;28;20801;-76
2023/01/17 10:48:19;;;;;;;9.33;8.87;;;;;;;12.43;64.23;91534.28;5090533;28;20191;-75
2023/01/17 10:50:53;;;;;;;8.40;8.00;;;;;;;12.21;61.77;91565.13;5085796;28;20228;-75
2023/01/17 10:53:28;;;;;;;9.00;8.60;;;;;;;12.24;63.31;91554.03;5123760;28;20194;-74
2023/01/17 10:55:54;;;;;;;9.47;8.73;;;;;;;12.35;62.37;91550.78;5090249;28;20228;-75
2023/01/17 10:58:20;;;;;;;9.70;8.93;;;;;;;12.30;63.44;91547.53;5090233;28;20208;-74
2023/01/17 11:00:45;;;;;;;9.10;8.70;;;;;;;12.28;64.02;91554.97;5090044;28;20274;-75
2023/01/17 11:03:13;;;;;;;8.77;8.17;;;;;;;12.59;61.28;91565.91;5091709;28;20180;-72
2023/01/17 11:05:41;;;;;;;8.37;8.07;;;;;;;12.41;62.71;91559.19;5090114;28;20242;-77
2023/01/17 11:08:14;;;;;;;9.20;8.63;;;;;;;12.34;62.39;91543.25;5089744;28;20203;-77
2023/01/17 11:10:47;;;;;;;9.50;8.57;;;;;;;12.64;62.73;91553.41;5089220;28;20265;-79
2023/01/17 11:13:28;;;;;;;9.03;8.53;;;;;;;12.43;62.26;91546.56;5091383;28;20177;-83
2023/01/17 11:16:00;;;;;;;8.57;8.17;;;;;;;12.41;62.54;91525.19;5122476;27;20230;-82
2023/01/17 11:18:30;;;;;;;9.13;8.53;;;;;;;12.51;62.41;91509.88;5090871;28;20185;-79
2023/01/17 11:21:25;;;;;;;8.97;8.57;;;;;;;12.37;63.85;91538.13;5090912;28;20303;-78
2023/01/17 11:23:55;;;;;;;9.23;8.93;;;;;;;12.37;63.32;91542.59;5102992;28;20412;-77
2023/01/17 11:26:26;;;;;;;9.03;8.53;;;;;;;12.22;62.49;91514.31;5090918;28;20218;-77
2023/01/17 11:29:11;;;;;;;8.37;8.07;;;;;;;12.38;62.29;91513.50;5089505;28;20240;-80
2023/01/17 11:31:37;;;;;;;8.83;8.23;;;;;;;12.20;64.43;91479.88;5090334;28;20188;-78
2023/01/17 11:34:17;;;;;;;8.57;8.17;;;;;;;12.46;63.36;91470.81;5089682;28;20204;-79
2023/01/17 11:36:42;;;;;;;8.57;8.27;;;;;;;12.79;62.42;91479.50;5105500;28;20206;-82
2023/01/17 11:39:26;;;;;;;8.43;8.03;;;;;;;12.67;61.41;91476.84;5088899;28;20239;-79
2023/01/17 11:41:52;;;;;;;9.27;8.77;;;;;;;12.50;61.28;91448.16;5090219;28;20173;-80
2023/01/17 11:44:20;;;;;;;9.07;8.67;;;;;;;12.61;62.06;91472.09;5089484;28;20242;-78
2023/01/17 11:46:45;;;;;;;8.53;8.07;;;;;;;12.38;61.44;91457.75;5090352;28;20172;-77
2023/01/17 11:49:22;;;;;;;8.53;8.23;;;;;;;12.40;62.14;91442.53;5089492;28;20220;-77
2023/01/17 11:51:48;;;;;;;8.73;8.23;;;;;;;12.47;62.41;91461.09;5089976;28;20270;-77
2023/01/17 11:54:21;;;;;;;8.03;7.63;;;;;;;12.46;61.19;91446.47;5105195;28;20214;-75
2023/01/17 11:56:46;;;;;;;9.13;8.47;;;;;;;12.49;60.64;91419.66;5089298;28;20221;-77
2023/01/17 11:59:23;;;;;;;8.73;8.23;;;;;;;12.45;60.96;91434.50;5088998;28;20227;-77
2023/01/17 12:02:31;;;;;;;8.77;8.07;;;;;;;12.38;61.56;91431.59;5089635;28;20207;-77
2023/01/17 12:05:06;;;;;;;9.30;8.90;;;;;;;12.51;60.32;91428.72;5091742;28;20230;-78
2023/01/17 12:07:40;;;;;;;8.40;8.03;;;;;;;12.40;60.99;91437.28;5088303;28;20202;-77
2023/01/17 12:10:18;;;;;;;8.93;8.23;;;;;;;12.46;60.73;91436.00;5087537;28;20289;-78
2023/01/17 12:15:59;;;;;;;9.37;8.97;;;;;;;12.25;62.29;91437.84;5087764;28;20295;-77
2023/01/17 12:18:34;;;;;;;9.10;8.70;;;;;;;12.33;60.72;91384.66;5089411;28;20194;-78
2023/01/17 12:21:26;;;;;;;10.07;9.53;;;;;;;12.36;62.23;91412.81;5104161;28;20225;-78
2023/01/17 12:24:11;;;;;;;8.27;7.97;;;;;;;12.19;62.28;91405.84;5104945;28;21351;-78
2023/01/17 12:26:40;;;;;;;9.20;8.70;;;;;;;12.14;61.64;91386.97;5089914;28;20188;-78
2023/01/17 12:29:42;;;;;;;8.53;8.13;;;;;;;12.39;59.62;91404.34;5089198;28;20240;-77
2023/01/17 12:32:25;;;;;;;9.07;8.40;;;;;;;12.43;61.04;91386.91;5089237;28;20198;-78
2023/01/17 12:35:00;;;;;;;8.20;7.90;;;;;;;12.38;59.87;91402.81;5088553;28;20236;-77
2023/01/17 12:37:47;;;;;;;10.03;9.47;;;;;;;12.60;59.30;91387.56;5089735;28;20307;-78
2023/01/17 12:40:25;;;;;;;9.17;8.70;;;;;;;12.65;59.60;91379.50;5088562;28;20234;-78
2023/01/17 12:43:11;;;;;;;8.63;8.10;;;;;;;12.67;59.24;91379.94;5088486;28;20264;-77
2023/01/17 12:45:43;;;;;;;7.83;7.53;;;;;;;12.83;58.82;91390.59;5089489;28;20279;-77
2023/01/17 12:48:16;;;;;;;9.27;8.67;;;;;;;12.79;59.93;91387.09;5090162;28;20191;-77
2023/01/17 12:50:41;;;;;;;8.57;8.03;;;;;;;13.09;56.78;91374.69;5088617;28;20232;-77
2023/01/17 12:53:26;;;;;;;9.67;9.07;;;;;;;12.85;57.18;91351.78;5089100;28;20735;-77
2023/01/17 12:55:58;;;;;;;9.60;8.73;;;;;;;13.00;58.51;91377.38;5089041;28;20218;-77
2023/01/17 12:58:28;;;;;;;8.57;8.13;;;;;;;12.50;60.58;91374.84;5088641;28;20223;-77
2023/01/17 13:01:00;;;;;;;8.60;8.10;;;;;;;12.73;57.56;91362.22;5085999;28;20226;-78
2023/01/17 13:03:37;;;;;;;9.33;8.90;;;;;;;12.86;58.22;91403.06;5088115;28;20197;-76
2023/01/17 13:06:06;;;;;;;8.10;7.80;;;;;;;12.73;57.51;91378.66;5086515;28;20224;-76
2023/01/17 13:08:45;;;;;;;9.33;8.93;;;;;;;12.74;58.12;91374.19;5087953;28;20178;-76
2023/01/17 13:11:26;;;;;;;8.03;7.73;;;;;;;12.68;58.46;91391.19;5088626;28;20263;-77